createdAt,value
2023-09-20T00:03:29.549Z,17.06
2023-09-20T00:08:33.441Z,17.81
2023-09-20T00:13:38.619Z,17.53
2023-09-20T00:18:41.534Z,15.85
2023-09-20T00:23:44.567Z,15.52
2023-09-20T00:28:50.243Z,16.90
2023-09-20T00:33:53.152Z,17.62
2023-09-20T00:38:58.371Z,17.78
2023-09-20T00:44:03.503Z,16.27
2023-09-20T00:49:07.655Z,14.93
2023-09-20T00:54:10.410Z,15.05
2023-09-20T00:59:13.389Z,16.63
2023-09-20T01:04:16.142Z,17.43
2023-09-20T01:09:18.854Z,17.24
2023-09-20T01:14:21.807Z,15.56
2023-09-20T01:19:24.598Z,15.27
2023-09-20T01:24:29.504Z,16.70
2023-09-20T01:29:32.236Z,17.45
2023-09-20T01:34:35.269Z,16.61
2023-09-20T01:39:37.981Z,15.07
2023-09-20T01:44:42.302Z,15.01
2023-09-20T01:49:45.238Z,16.59
2023-09-20T01:54:48.278Z,17.39
2023-09-20T01:59:52.724Z,16.37
2023-09-20T02:04:55.842Z,14.91
2023-09-20T02:09:59.800Z,14.87
2023-09-20T02:15:08.371Z,16.46
2023-09-20T02:20:12.419Z,17.33
2023-09-20T02:25:21.829Z,16.93
2023-09-20T02:30:38.198Z,15.21
2023-09-20T02:35:41.112Z,15.11
2023-09-20T02:40:47.776Z,16.67
2023-09-20T02:45:50.880Z,17.49
2023-09-20T02:50:54.341Z,16.71
2023-09-20T02:55:57.035Z,15.10
2023-09-20T03:00:59.742Z,14.99
2023-09-20T03:06:10.353Z,16.55
2023-09-20T03:11:21.393Z,17.39
2023-09-20T03:16:24.091Z,16.99
2023-09-20T03:21:26.880Z,15.25
2023-09-20T03:26:31.323Z,14.96
2023-09-20T03:31:34.436Z,16.49
2023-09-20T03:36:37.883Z,17.32
2023-09-20T03:41:40.969Z,16.69
2023-09-20T03:46:43.819Z,15.02
2023-09-20T03:51:49.811Z,14.81
2023-09-20T03:56:52.819Z,16.35
2023-09-20T04:01:55.434Z,17.17
2023-09-20T04:07:00.191Z,16.90
2023-09-20T04:12:05.133Z,15.18
2023-09-20T04:17:08.454Z,14.87
2023-09-20T04:22:11.518Z,16.43
2023-09-20T04:27:14.940Z,17.30
2023-09-20T04:32:17.674Z,17.02
2023-09-20T04:37:21.767Z,15.31
2023-09-20T04:42:24.476Z,15.09
2023-09-20T04:47:31.858Z,16.67
2023-09-20T04:52:34.586Z,17.53
2023-09-20T04:57:39.711Z,16.59
2023-09-20T05:02:42.759Z,15.15
2023-09-20T05:07:46.069Z,15.19
2023-09-20T05:12:49.622Z,16.97
2023-09-20T05:17:52.508Z,17.51
2023-09-20T05:22:55.372Z,16.14
2023-09-20T05:27:58.287Z,15.23
2023-09-20T05:33:00.975Z,15.63
2023-09-20T05:38:04.125Z,17.58
2023-09-20T05:43:08.136Z,17.88
2023-09-20T05:48:11.259Z,16.61
2023-09-20T05:53:15.134Z,15.90
2023-09-20T05:58:18.385Z,16.35
2023-09-20T06:03:22.854Z,18.28
2023-09-20T06:08:29.382Z,18.02
2023-09-20T06:13:37.644Z,17.03
2023-09-20T06:18:55.025Z,18.40
2023-09-20T06:24:13.150Z,18.73
2023-09-20T06:29:16.022Z,17.51
2023-09-20T06:34:23.249Z,17.48
2023-09-20T06:39:27.127Z,18.79
2023-09-20T06:44:36.930Z,17.92
2023-09-20T06:49:40.007Z,17.29
2023-09-20T06:54:42.621Z,17.05
2023-09-20T06:59:46.921Z,18.42
2023-09-20T07:04:49.721Z,19.45
2023-09-20T07:09:52.563Z,18.50
2023-09-20T07:14:55.322Z,17.99
2023-09-20T07:20:02.850Z,17.82
2023-09-20T07:25:08.011Z,17.82
2023-09-20T07:30:17.196Z,18.02
2023-09-20T07:35:30.706Z,19.85
2023-09-20T07:40:37.175Z,20.37
2023-09-20T07:45:40.582Z,19.56
2023-09-20T07:50:51.186Z,19.21
2023-09-20T07:56:02.239Z,19.14
2023-09-20T08:01:13.794Z,19.17
2023-09-20T08:06:16.831Z,19.36
2023-09-20T08:11:21.840Z,20.34
2023-09-20T08:16:37.708Z,20.31
2023-09-20T08:21:45.214Z,20.19
2023-09-20T08:27:08.403Z,20.09
2023-09-20T08:32:30.755Z,20.08
2023-09-20T08:37:52.078Z,20.20
2023-09-20T08:43:14.317Z,20.40
2023-09-20T08:48:36.548Z,20.73
2023-09-20T08:53:58.623Z,20.97
2023-09-20T08:59:20.855Z,21.27
2023-09-20T09:04:24.191Z,21.46
2023-09-20T09:09:27.128Z,21.58
2023-09-20T09:14:30.131Z,21.59
2023-09-20T09:19:34.486Z,21.52
2023-09-20T09:24:48.614Z,21.30
2023-09-20T09:29:51.334Z,21.17
2023-09-20T09:34:54.105Z,21.12
2023-09-20T09:40:03.813Z,21.23
2023-09-20T09:45:07.809Z,21.50
2023-09-20T09:50:11.692Z,21.65
2023-09-20T09:55:17.678Z,21.73
2023-09-20T10:00:22.939Z,21.81
2023-09-20T10:05:26.566Z,21.97
2023-09-20T10:10:29.358Z,22.00
2023-09-20T10:15:34.818Z,22.07
2023-09-20T10:20:59.739Z,22.18
2023-09-20T10:26:02.548Z,22.29
2023-09-20T10:31:06.882Z,22.44
2023-09-20T10:36:12.354Z,22.64
2023-09-20T10:41:17.805Z,22.81
2023-09-20T10:46:23.778Z,22.96
2023-09-20T10:51:54.203Z,23.14
2023-09-20T10:57:04.242Z,23.39
2023-09-20T11:02:10.096Z,23.60
2023-09-20T11:07:13.353Z,23.74
2023-09-20T11:12:16.960Z,23.77
2023-09-20T11:17:20.570Z,23.87
2023-09-20T11:22:26.440Z,24.07
2023-09-20T11:27:29.238Z,24.06
2023-09-20T11:32:31.959Z,24.21
2023-09-20T11:37:36.720Z,24.28
2023-09-20T11:42:44.401Z,24.17
2023-09-20T11:47:47.698Z,24.06
2023-09-20T11:52:50.842Z,23.91
2023-09-20T11:57:54.029Z,23.74
2023-09-20T12:02:57.030Z,23.74
2023-09-20T12:08:01.600Z,23.99
2023-09-20T12:13:05.145Z,24.19
2023-09-20T12:18:14.353Z,24.31
2023-09-20T12:23:18.666Z,24.37
2023-09-20T12:28:21.666Z,24.44
2023-09-20T12:33:26.087Z,24.68
2023-09-20T12:38:30.790Z,24.84
2023-09-20T12:43:33.527Z,24.99
2023-09-20T12:48:38.190Z,25.15
2023-09-20T12:53:43.726Z,25.17
2023-09-20T12:58:46.754Z,25.14
2023-09-20T13:03:50.188Z,25.02
2023-09-20T13:08:52.928Z,24.88
2023-09-20T13:13:56.423Z,24.71
2023-09-20T13:18:59.969Z,24.57
2023-09-20T13:24:02.847Z,24.61
2023-09-20T13:29:06.199Z,24.73
2023-09-20T13:34:15.752Z,24.70
2023-09-20T13:39:18.927Z,24.65
2023-09-20T13:44:21.695Z,24.57
2023-09-20T13:49:24.486Z,24.60
2023-09-20T13:54:28.136Z,24.64
2023-09-20T13:59:31.997Z,24.80
2023-09-20T14:04:35.274Z,25.18
2023-09-20T14:09:43.088Z,25.76
2023-09-20T14:14:45.852Z,25.92
2023-09-20T14:19:48.558Z,26.11
2023-09-20T14:24:51.218Z,26.33
2023-09-20T14:29:53.875Z,26.47
2023-09-20T14:34:59.198Z,26.37
2023-09-20T14:40:04.422Z,25.98
2023-09-20T14:45:10.069Z,25.71
2023-09-20T14:50:13.567Z,25.86
2023-09-20T14:55:20.193Z,26.41
2023-09-20T15:00:25.535Z,27.15
2023-09-20T15:05:29.072Z,28.07
2023-09-20T15:10:32.057Z,28.93
2023-09-20T15:15:36.958Z,29.48
2023-09-20T15:20:43.740Z,29.46
2023-09-20T15:25:46.498Z,29.27
2023-09-20T15:30:50.152Z,29.43
2023-09-20T15:36:02.386Z,29.71
2023-09-20T15:41:06.695Z,29.46
2023-09-20T15:46:09.963Z,29.27
2023-09-20T15:51:12.700Z,29.31
2023-09-20T15:56:16.359Z,29.19
2023-09-20T16:01:20.591Z,28.51
2023-09-20T16:06:23.668Z,27.41
2023-09-20T16:11:31.451Z,26.35
2023-09-20T16:16:36.095Z,25.40
2023-09-20T16:21:40.219Z,24.43
2023-09-20T16:26:46.605Z,23.57
2023-09-20T16:31:49.406Z,22.90
2023-09-20T16:36:52.083Z,22.29
2023-09-20T16:41:54.924Z,21.70
2023-09-20T16:46:58.812Z,21.13
2023-09-20T16:52:02.247Z,20.62
2023-09-20T16:57:05.499Z,20.17
2023-09-20T17:02:10.378Z,19.75
2023-09-20T17:07:13.205Z,19.34
2023-09-20T17:12:15.978Z,18.96
2023-09-20T17:17:20.420Z,18.61
2023-09-20T17:22:23.606Z,18.30
2023-09-20T17:27:30.985Z,18.02
2023-09-20T17:32:34.293Z,18.50
2023-09-20T17:37:41.762Z,20.42
2023-09-20T17:42:44.943Z,21.51
2023-09-20T17:47:49.596Z,21.39
2023-09-20T17:52:52.689Z,19.98
2023-09-20T17:57:57.120Z,19.04
2023-09-20T18:03:00.132Z,18.42
2023-09-20T18:08:05.025Z,18.74
2023-09-20T18:13:07.900Z,20.44
2023-09-20T18:18:11.316Z,21.35
2023-09-20T18:23:14.359Z,21.17
2023-09-20T18:28:17.684Z,19.61
2023-09-20T18:33:21.474Z,18.60
2023-09-20T18:38:24.359Z,18.79
2023-09-20T18:43:26.974Z,20.34
2023-09-20T18:48:29.804Z,21.13
2023-09-20T18:53:32.537Z,20.88
2023-09-20T18:58:37.846Z,19.37
2023-09-20T19:03:40.788Z,18.32
2023-09-20T19:08:46.224Z,18.70
2023-09-20T19:13:51.424Z,20.21
2023-09-20T19:19:00.014Z,20.94
2023-09-20T19:24:10.459Z,20.62
2023-09-20T19:29:13.630Z,18.96
2023-09-20T19:34:16.366Z,18.61
2023-09-20T19:39:18.980Z,19.93
2023-09-20T19:44:21.862Z,20.68
2023-09-20T19:49:26.067Z,20.50
2023-09-20T19:54:28.764Z,18.88
2023-09-20T19:59:31.590Z,18.59
2023-09-20T20:04:34.689Z,20.01
2023-09-20T20:09:37.446Z,20.72
2023-09-20T20:14:41.718Z,20.43
2023-09-20T20:19:44.883Z,18.79
2023-09-20T20:24:48.619Z,18.49
2023-09-20T20:29:53.675Z,19.93
2023-09-20T20:34:56.432Z,20.68
2023-09-20T20:39:59.719Z,20.39
2023-09-20T20:45:02.881Z,18.74
2023-09-20T20:50:06.657Z,18.58
2023-09-20T20:55:11.813Z,20.01
2023-09-20T21:00:24.514Z,20.72
2023-09-20T21:05:32.286Z,20.77
2023-09-20T21:10:40.897Z,19.09
2023-09-20T21:15:48.077Z,18.72
2023-09-20T21:20:54.358Z,20.06
2023-09-20T21:25:57.089Z,20.74
2023-09-20T21:30:59.843Z,20.43
2023-09-20T21:36:02.559Z,18.71
2023-09-20T21:41:05.408Z,18.92
2023-09-20T21:46:08.288Z,20.14
2023-09-20T21:51:11.091Z,20.69
2023-09-20T21:56:14.132Z,20.34
2023-09-20T22:01:17.854Z,18.63
2023-09-20T22:06:21.354Z,18.30
2023-09-20T22:11:24.380Z,19.63
2023-09-20T22:16:28.128Z,20.23
2023-09-20T22:21:33.335Z,20.56
2023-09-20T22:26:37.194Z,20.03
2023-09-20T22:31:39.935Z,18.35
2023-09-20T22:36:43.830Z,18.32
2023-09-20T22:41:46.614Z,19.68
2023-09-20T22:46:49.922Z,20.32
2023-09-20T22:51:52.898Z,20.59
2023-09-20T22:56:55.585Z,20.66
2023-09-20T23:01:58.328Z,19.97
2023-09-20T23:07:01.020Z,18.22
2023-09-20T23:12:04.594Z,18.94
2023-09-20T23:17:09.745Z,19.91
2023-09-20T23:22:18.433Z,20.35
2023-09-20T23:27:24.170Z,20.23
2023-09-20T23:32:31.151Z,18.49
2023-09-20T23:37:36.181Z,18.06
2023-09-20T23:42:40.064Z,19.34
2023-09-20T23:47:43.354Z,19.96
2023-09-20T23:52:46.099Z,20.29
2023-09-20T23:57:48.985Z,19.84
